sensor_id;sensor_type;location;lat;lon;timestamp;P1;durP1;ratioP1;P2;durP2;ratioP2
18875;SDS011;9570;50.854;13.778;2023-03-01T00:01:37;18.83;;;11.27;;
18875;SDS011;9570;50.854;13.778;2023-03-01T00:04:02;20.93;;;10.70;;
18875;SDS011;9570;50.854;13.778;2023-03-01T00:06:28;18.23;;;10.97;;
18875;SDS011;9570;50.854;13.778;2023-03-01T00:08:53;19.90;;;11.50;;
18875;SDS011;9570;50.854;13.778;2023-03-01T00:11:20;18.93;;;11.53;;
18875;SDS011;9570;50.854;13.778;2023-03-01T00:13:51;18.77;;;11.57;;
18875;SDS011;9570;50.854;13.778;2023-03-01T00:16:20;18.38;;;10.77;;
18875;SDS011;9570;50.854;13.778;2023-03-01T00:18:47;18.83;;;11.52;;
18875;SDS011;9570;50.854;13.778;2023-03-01T00:21:13;17.27;;;11.10;;
18875;SDS011;9570;50.854;13.778;2023-03-01T00:23:39;19.80;;;11.27;;
18875;SDS011;9570;50.854;13.778;2023-03-01T00:26:06;18.45;;;10.65;;
18875;SDS011;9570;50.854;13.778;2023-03-01T00:28:33;17.98;;;11.02;;
18875;SDS011;9570;50.854;13.778;2023-03-01T00:31:03;18.60;;;11.27;;
18875;SDS011;9570;50.854;13.778;2023-03-01T00:33:30;17.55;;;11.30;;
18875;SDS011;9570;50.854;13.778;2023-03-01T00:35:57;19.33;;;11.40;;
18875;SDS011;9570;50.854;13.778;2023-03-01T00:38:23;18.10;;;10.88;;
18875;SDS011;9570;50.854;13.778;2023-03-01T00:40:48;16.60;;;10.80;;
18875;SDS011;9570;50.854;13.778;2023-03-01T00:43:14;19.17;;;10.57;;
18875;SDS011;9570;50.854;13.778;2023-03-01T00:45:39;15.43;;;10.07;;
18875;SDS011;9570;50.854;13.778;2023-03-01T00:48:05;18.30;;;11.93;;
18875;SDS011;9570;50.854;13.778;2023-03-01T00:50:30;20.13;;;10.70;;
18875;SDS011;9570;50.854;13.778;2023-03-01T00:52:56;17.07;;;10.10;;
18875;SDS011;9570;50.854;13.778;2023-03-01T00:55:22;18.40;;;11.30;;
18875;SDS011;9570;50.854;13.778;2023-03-01T00:57:48;16.48;;;10.05;;
18875;SDS011;9570;50.854;13.778;2023-03-01T01:00:13;18.03;;;11.60;;
18875;SDS011;9570;50.854;13.778;2023-03-01T01:02:39;20.48;;;10.95;;
18875;SDS011;9570;50.854;13.778;2023-03-01T01:05:05;18.90;;;11.37;;
18875;SDS011;9570;50.854;13.778;2023-03-01T01:07:31;17.38;;;10.95;;
18875;SDS011;9570;50.854;13.778;2023-03-01T01:09:56;18.60;;;10.93;;
18875;SDS011;9570;50.854;13.778;2023-03-01T01:12:22;17.03;;;10.60;;
18875;SDS011;9570;50.854;13.778;2023-03-01T01:14:47;17.17;;;10.53;;
18875;SDS011;9570;50.854;13.778;2023-03-01T01:17:13;16.67;;;10.17;;
18875;SDS011;9570;50.854;13.778;2023-03-01T01:19:38;22.20;;;11.63;;
18875;SDS011;9570;50.854;13.778;2023-03-01T01:22:04;19.50;;;11.20;;
18875;SDS011;9570;50.854;13.778;2023-03-01T01:24:29;19.50;;;10.73;;
18875;SDS011;9570;50.854;13.778;2023-03-01T01:26:55;16.80;;;10.90;;
18875;SDS011;9570;50.854;13.778;2023-03-01T01:29:21;19.17;;;11.30;;
18875;SDS011;9570;50.854;13.778;2023-03-01T01:31:46;19.30;;;10.67;;
18875;SDS011;9570;50.854;13.778;2023-03-01T01:34:16;17.80;;;11.07;;
18875;SDS011;9570;50.854;13.778;2023-03-01T01:36:43;18.08;;;11.13;;
18875;SDS011;9570;50.854;13.778;2023-03-01T01:39:12;20.02;;;11.68;;
18875;SDS011;9570;50.854;13.778;2023-03-01T01:41:38;19.43;;;10.63;;
18875;SDS011;9570;50.854;13.778;2023-03-01T01:47:02;18.48;;;11.13;;
18875;SDS011;9570;50.854;13.778;2023-03-01T01:49:44;15.98;;;10.73;;
18875;SDS011;9570;50.854;13.778;2023-03-01T01:57:18;18.90;;;11.20;;
18875;SDS011;9570;50.854;13.778;2023-03-01T01:59:48;18.45;;;10.57;;
18875;SDS011;9570;50.854;13.778;2023-03-01T02:02:17;14.43;;;9.80;;
18875;SDS011;9570;50.854;13.778;2023-03-01T02:04:43;18.85;;;10.95;;
18875;SDS011;9570;50.854;13.778;2023-03-01T02:07:13;20.80;;;11.60;;
18875;SDS011;9570;50.854;13.778;2023-03-01T02:09:41;19.55;;;11.38;;
18875;SDS011;9570;50.854;13.778;2023-03-01T02:12:10;17.83;;;11.07;;
18875;SDS011;9570;50.854;13.778;2023-03-01T02:14:35;18.87;;;10.70;;
18875;SDS011;9570;50.854;13.778;2023-03-01T02:17:01;17.77;;;11.57;;
18875;SDS011;9570;50.854;13.778;2023-03-01T02:22:20;18.05;;;10.10;;
18875;SDS011;9570;50.854;13.778;2023-03-01T02:25:02;22.23;;;11.13;;
18875;SDS011;9570;50.854;13.778;2023-03-01T02:30:44;20.50;;;10.63;;
18875;SDS011;9570;50.854;13.778;2023-03-01T02:33:31;16.88;;;10.88;;
18875;SDS011;9570;50.854;13.778;2023-03-01T02:36:01;20.45;;;11.85;;
18875;SDS011;9570;50.854;13.778;2023-03-01T02:38:29;19.35;;;11.45;;
18875;SDS011;9570;50.854;13.778;2023-03-01T02:40:56;16.40;;;11.18;;
18875;SDS011;9570;50.854;13.778;2023-03-01T02:43:22;20.90;;;11.37;;
18875;SDS011;9570;50.854;13.778;2023-03-01T02:45:52;19.63;;;11.40;;
18875;SDS011;9570;50.854;13.778;2023-03-01T02:48:18;17.08;;;9.98;;
18875;SDS011;9570;50.854;13.778;2023-03-01T02:53:16;18.42;;;10.85;;
18875;SDS011;9570;50.854;13.778;2023-03-01T02:56:06;17.45;;;10.45;;
18875;SDS011;9570;50.854;13.778;2023-03-01T02:58:37;19.02;;;10.95;;
18875;SDS011;9570;50.854;13.778;2023-03-01T03:01:10;20.55;;;11.18;;
18875;SDS011;9570;50.854;13.778;2023-03-01T03:03:38;19.25;;;11.60;;
18875;SDS011;9570;50.854;13.778;2023-03-01T03:06:03;19.03;;;11.60;;
18875;SDS011;9570;50.854;13.778;2023-03-01T03:08:29;19.30;;;11.03;;
18875;SDS011;9570;50.854;13.778;2023-03-01T03:10:54;22.20;;;11.40;;
18875;SDS011;9570;50.854;13.778;2023-03-01T03:13:20;19.75;;;11.75;;
18875;SDS011;9570;50.854;13.778;2023-03-01T03:15:46;19.20;;;10.38;;
18875;SDS011;9570;50.854;13.778;2023-03-01T03:18:13;21.43;;;12.67;;
18875;SDS011;9570;50.854;13.778;2023-03-01T03:20:41;20.48;;;11.73;;
18875;SDS011;9570;50.854;13.778;2023-03-01T03:23:08;19.38;;;11.23;;
18875;SDS011;9570;50.854;13.778;2023-03-01T03:25:33;15.43;;;10.40;;
18875;SDS011;9570;50.854;13.778;2023-03-01T03:28:02;19.33;;;11.27;;
18875;SDS011;9570;50.854;13.778;2023-03-01T03:30:34;21.63;;;10.27;;
18875;SDS011;9570;50.854;13.778;2023-03-01T03:33:03;21.50;;;11.98;;
18875;SDS011;9570;50.854;13.778;2023-03-01T03:35:30;19.80;;;11.03;;
18875;SDS011;9570;50.854;13.778;2023-03-01T03:37:58;18.00;;;10.07;;
18875;SDS011;9570;50.854;13.778;2023-03-01T03:43:06;20.00;;;11.63;;
18875;SDS011;9570;50.854;13.778;2023-03-01T03:45:34;20.30;;;11.95;;
18875;SDS011;9570;50.854;13.778;2023-03-01T03:48:00;19.48;;;11.50;;
18875;SDS011;9570;50.854;13.778;2023-03-01T03:50:27;15.43;;;10.57;;
18875;SDS011;9570;50.854;13.778;2023-03-01T03:52:52;20.03;;;11.83;;
18875;SDS011;9570;50.854;13.778;2023-03-01T03:55:18;18.40;;;10.30;;
18875;SDS011;9570;50.854;13.778;2023-03-01T03:57:44;19.05;;;11.40;;
18875;SDS011;9570;50.854;13.778;2023-03-01T04:00:16;25.02;;;10.93;;
18875;SDS011;9570;50.854;13.778;2023-03-01T04:02:43;21.63;;;11.18;;
18875;SDS011;9570;50.854;13.778;2023-03-01T04:05:10;16.55;;;11.18;;
18875;SDS011;9570;50.854;13.778;2023-03-01T04:07:37;18.48;;;11.07;;
18875;SDS011;9570;50.854;13.778;2023-03-01T04:10:04;22.17;;;11.30;;
18875;SDS011;9570;50.854;13.778;2023-03-01T04:12:31;19.65;;;11.35;;
18875;SDS011;9570;50.854;13.778;2023-03-01T04:14:58;19.73;;;11.32;;
18875;SDS011;9570;50.854;13.778;2023-03-01T04:17:24;19.13;;;11.45;;
18875;SDS011;9570;50.854;13.778;2023-03-01T04:19:50;20.50;;;11.03;;
18875;SDS011;9570;50.854;13.778;2023-03-01T04:22:15;21.13;;;10.73;;
18875;SDS011;9570;50.854;13.778;2023-03-01T04:24:43;20.08;;;11.43;;
18875;SDS011;9570;50.854;13.778;2023-03-01T04:27:09;24.33;;;11.57;;
18875;SDS011;9570;50.854;13.778;2023-03-01T04:29:34;18.27;;;11.17;;
18875;SDS011;9570;50.854;13.778;2023-03-01T04:32:00;17.90;;;10.47;;
18875;SDS011;9570;50.854;13.778;2023-03-01T04:34:25;20.20;;;11.17;;
18875;SDS011;9570;50.854;13.778;2023-03-01T04:36:53;18.70;;;10.35;;
18875;SDS011;9570;50.854;13.778;2023-03-01T04:39:19;18.07;;;9.87;;
18875;SDS011;9570;50.854;13.778;2023-03-01T04:41:44;19.37;;;10.43;;
18875;SDS011;9570;50.854;13.778;2023-03-01T04:44:10;21.13;;;11.87;;
18875;SDS011;9570;50.854;13.778;2023-03-01T04:46:36;20.40;;;11.13;;
18875;SDS011;9570;50.854;13.778;2023-03-01T04:49:02;19.40;;;10.67;;
18875;SDS011;9570;50.854;13.778;2023-03-01T04:51:28;17.58;;;10.68;;
18875;SDS011;9570;50.854;13.778;2023-03-01T04:53:53;17.87;;;10.63;;
18875;SDS011;9570;50.854;13.778;2023-03-01T04:56:19;18.40;;;10.70;;
18875;SDS011;9570;50.854;13.778;2023-03-01T04:58:47;19.52;;;11.15;;
18875;SDS011;9570;50.854;13.778;2023-03-01T05:01:14;19.43;;;11.60;;
18875;SDS011;9570;50.854;13.778;2023-03-01T05:03:43;22.15;;;12.15;;
18875;SDS011;9570;50.854;13.778;2023-03-01T05:06:12;18.88;;;11.23;;
18875;SDS011;9570;50.854;13.778;2023-03-01T05:08:39;18.25;;;11.35;;
18875;SDS011;9570;50.854;13.778;2023-03-01T05:11:06;18.08;;;10.80;;
18875;SDS011;9570;50.854;13.778;2023-03-01T05:13:33;20.38;;;11.18;;
18875;SDS011;9570;50.854;13.778;2023-03-01T05:16:01;16.90;;;10.55;;
18875;SDS011;9570;50.854;13.778;2023-03-01T05:18:28;23.73;;;10.93;;
18875;SDS011;9570;50.854;13.778;2023-03-01T05:21:00;21.73;;;11.35;;
18875;SDS011;9570;50.854;13.778;2023-03-01T05:23:31;19.30;;;11.70;;
18875;SDS011;9570;50.854;13.778;2023-03-01T05:25:58;18.05;;;11.00;;
18875;SDS011;9570;50.854;13.778;2023-03-01T05:28:25;21.20;;;10.73;;
18875;SDS011;9570;50.854;13.778;2023-03-01T05:30:51;18.58;;;10.55;;
18875;SDS011;9570;50.854;13.778;2023-03-01T05:33:17;18.10;;;10.90;;
18875;SDS011;9570;50.854;13.778;2023-03-01T05:35:43;19.17;;;11.05;;
18875;SDS011;9570;50.854;13.778;2023-03-01T05:38:10;19.67;;;11.20;;
18875;SDS011;9570;50.854;13.778;2023-03-01T05:40:40;19.27;;;10.98;;
18875;SDS011;9570;50.854;13.778;2023-03-01T05:43:09;18.73;;;11.98;;
18875;SDS011;9570;50.854;13.778;2023-03-01T05:45:36;20.38;;;11.88;;
18875;SDS011;9570;50.854;13.778;2023-03-01T05:48:03;24.08;;;11.50;;
18875;SDS011;9570;50.854;13.778;2023-03-01T05:50:30;22.50;;;11.43;;
18875;SDS011;9570;50.854;13.778;2023-03-01T05:55:23;20.67;;;11.83;;
18875;SDS011;9570;50.854;13.778;2023-03-01T05:57:49;21.93;;;11.40;;
18875;SDS011;9570;50.854;13.778;2023-03-01T06:00:15;20.40;;;11.57;;
18875;SDS011;9570;50.854;13.778;2023-03-01T06:02:43;22.92;;;11.93;;
18875;SDS011;9570;50.854;13.778;2023-03-01T06:05:09;20.23;;;12.33;;
18875;SDS011;9570;50.854;13.778;2023-03-01T06:07:36;18.48;;;11.52;;
18875;SDS011;9570;50.854;13.778;2023-03-01T06:10:02;23.03;;;10.73;;
18875;SDS011;9570;50.854;13.778;2023-03-01T06:12:35;21.13;;;11.18;;
18875;SDS011;9570;50.854;13.778;2023-03-01T06:15:02;18.48;;;10.60;;
18875;SDS011;9570;50.854;13.778;2023-03-01T06:17:30;20.70;;;11.25;;
18875;SDS011;9570;50.854;13.778;2023-03-01T06:19:57;20.08;;;10.38;;
18875;SDS011;9570;50.854;13.778;2023-03-01T06:22:22;21.57;;;11.27;;
18875;SDS011;9570;50.854;13.778;2023-03-01T06:24:48;21.50;;;11.63;;
18875;SDS011;9570;50.854;13.778;2023-03-01T06:27:14;25.40;;;11.68;;
18875;SDS011;9570;50.854;13.778;2023-03-01T06:29:40;17.23;;;10.70;;
18875;SDS011;9570;50.854;13.778;2023-03-01T06:32:05;20.00;;;11.47;;
18875;SDS011;9570;50.854;13.778;2023-03-01T06:34:32;20.50;;;11.30;;
18875;SDS011;9570;50.854;13.778;2023-03-01T06:36:58;22.03;;;11.97;;
18875;SDS011;9570;50.854;13.778;2023-03-01T06:39:24;20.00;;;11.90;;
18875;SDS011;9570;50.854;13.778;2023-03-01T06:41:49;19.60;;;10.87;;
18875;SDS011;9570;50.854;13.778;2023-03-01T06:44:14;21.07;;;12.00;;
18875;SDS011;9570;50.854;13.778;2023-03-01T06:46:40;18.43;;;10.13;;
18875;SDS011;9570;50.854;13.778;2023-03-01T06:49:06;19.70;;;11.73;;
18875;SDS011;9570;50.854;13.778;2023-03-01T06:51:34;22.25;;;12.13;;
18875;SDS011;9570;50.854;13.778;2023-03-01T06:54:01;24.35;;;13.45;;
18875;SDS011;9570;50.854;13.778;2023-03-01T06:56:27;22.13;;;12.80;;
18875;SDS011;9570;50.854;13.778;2023-03-01T06:58:52;21.47;;;12.60;;
18875;SDS011;9570;50.854;13.778;2023-03-01T07:01:18;20.43;;;12.10;;
18875;SDS011;9570;50.854;13.778;2023-03-01T07:03:43;24.23;;;13.07;;
18875;SDS011;9570;50.854;13.778;2023-03-01T07:06:09;21.73;;;12.90;;
18875;SDS011;9570;50.854;13.778;2023-03-01T07:08:34;25.37;;;12.53;;
18875;SDS011;9570;50.854;13.778;2023-03-01T07:11:00;22.93;;;13.57;;
18875;SDS011;9570;50.854;13.778;2023-03-01T07:13:27;24.63;;;13.23;;
18875;SDS011;9570;50.854;13.778;2023-03-01T07:15:52;24.07;;;13.80;;
18875;SDS011;9570;50.854;13.778;2023-03-01T07:18:18;25.00;;;14.20;;
18875;SDS011;9570;50.854;13.778;2023-03-01T07:20:43;27.87;;;16.53;;
18875;SDS011;9570;50.854;13.778;2023-03-01T07:23:10;26.15;;;15.13;;
18875;SDS011;9570;50.854;13.778;2023-03-01T07:25:35;29.20;;;17.30;;
18875;SDS011;9570;50.854;13.778;2023-03-01T07:28:00;32.30;;;18.40;;
18875;SDS011;9570;50.854;13.778;2023-03-01T07:30:26;33.40;;;18.40;;
18875;SDS011;9570;50.854;13.778;2023-03-01T07:32:53;36.17;;;19.35;;
18875;SDS011;9570;50.854;13.778;2023-03-01T07:35:20;30.50;;;18.70;;
18875;SDS011;9570;50.854;13.778;2023-03-01T07:37:45;33.60;;;18.23;;
18875;SDS011;9570;50.854;13.778;2023-03-01T07:40:11;35.23;;;20.27;;
18875;SDS011;9570;50.854;13.778;2023-03-01T07:42:37;29.10;;;17.40;;
18875;SDS011;9570;50.854;13.778;2023-03-01T07:45:03;29.97;;;18.43;;
18875;SDS011;9570;50.854;13.778;2023-03-01T07:47:30;31.38;;;19.35;;
18875;SDS011;9570;50.854;13.778;2023-03-01T07:49:56;36.07;;;23.50;;
18875;SDS011;9570;50.854;13.778;2023-03-01T07:52:21;28.00;;;18.13;;
18875;SDS011;9570;50.854;13.778;2023-03-01T07:54:47;22.90;;;14.33;;
18875;SDS011;9570;50.854;13.778;2023-03-01T07:57:12;25.23;;;14.87;;
18875;SDS011;9570;50.854;13.778;2023-03-01T07:59:38;21.93;;;14.03;;
18875;SDS011;9570;50.854;13.778;2023-03-01T08:02:03;22.60;;;13.33;;
18875;SDS011;9570;50.854;13.778;2023-03-01T08:04:29;22.77;;;14.20;;
18875;SDS011;9570;50.854;13.778;2023-03-01T08:06:54;25.07;;;13.63;;
18875;SDS011;9570;50.854;13.778;2023-03-01T08:09:20;25.23;;;15.70;;
18875;SDS011;9570;50.854;13.778;2023-03-01T08:11:46;25.67;;;16.47;;
18875;SDS011;9570;50.854;13.778;2023-03-01T08:14:12;26.83;;;14.97;;
18875;SDS011;9570;50.854;13.778;2023-03-01T08:16:37;23.83;;;13.63;;
18875;SDS011;9570;50.854;13.778;2023-03-01T08:19:06;22.87;;;13.27;;
18875;SDS011;9570;50.854;13.778;2023-03-01T08:21:32;22.10;;;13.23;;
18875;SDS011;9570;50.854;13.778;2023-03-01T08:23:59;22.87;;;16.23;;
18875;SDS011;9570;50.854;13.778;2023-03-01T08:26:29;18.17;;;12.67;;
18875;SDS011;9570;50.854;13.778;2023-03-01T08:28:55;20.83;;;13.87;;
18875;SDS011;9570;50.854;13.778;2023-03-01T08:31:25;21.53;;;13.87;;
18875;SDS011;9570;50.854;13.778;2023-03-01T08:33:57;21.90;;;14.87;;
18875;SDS011;9570;50.854;13.778;2023-03-01T08:36:25;22.13;;;14.50;;
18875;SDS011;9570;50.854;13.778;2023-03-01T08:38:55;26.63;;;16.70;;
18875;SDS011;9570;50.854;13.778;2023-03-01T08:41:21;24.73;;;16.40;;
18875;SDS011;9570;50.854;13.778;2023-03-01T08:43:47;27.80;;;16.57;;
18875;SDS011;9570;50.854;13.778;2023-03-01T08:46:13;24.63;;;15.83;;
18875;SDS011;9570;50.854;13.778;2023-03-01T08:48:39;24.10;;;16.00;;
18875;SDS011;9570;50.854;13.778;2023-03-01T08:51:11;23.83;;;15.77;;
18875;SDS011;9570;50.854;13.778;2023-03-01T08:53:41;21.50;;;15.83;;
18875;SDS011;9570;50.854;13.778;2023-03-01T08:56:08;25.67;;;16.60;;
18875;SDS011;9570;50.854;13.778;2023-03-01T08:58:34;22.27;;;14.97;;
18875;SDS011;9570;50.854;13.778;2023-03-01T09:01:00;25.40;;;14.47;;
18875;SDS011;9570;50.854;13.778;2023-03-01T09:03:26;21.90;;;14.83;;
18875;SDS011;9570;50.854;13.778;2023-03-01T09:05:52;20.63;;;14.53;;
18875;SDS011;9570;50.854;13.778;2023-03-01T09:08:18;24.13;;;14.80;;
18875;SDS011;9570;50.854;13.778;2023-03-01T09:10:44;22.23;;;14.53;;
18875;SDS011;9570;50.854;13.778;2023-03-01T09:13:10;23.07;;;14.97;;
18875;SDS011;9570;50.854;13.778;2023-03-01T09:15:39;22.33;;;14.70;;
18875;SDS011;9570;50.854;13.778;2023-03-01T09:18:04;23.83;;;15.27;;
18875;SDS011;9570;50.854;13.778;2023-03-01T09:20:30;22.83;;;15.30;;
18875;SDS011;9570;50.854;13.778;2023-03-01T09:22:56;20.10;;;14.13;;
18875;SDS011;9570;50.854;13.778;2023-03-01T09:25:22;20.90;;;15.10;;
18875;SDS011;9570;50.854;13.778;2023-03-01T09:27:52;20.37;;;14.20;;
18875;SDS011;9570;50.854;13.778;2023-03-01T09:30:18;20.27;;;14.13;;
18875;SDS011;9570;50.854;13.778;2023-03-01T09:32:44;19.93;;;13.63;;
18875;SDS011;9570;50.854;13.778;2023-03-01T09:35:10;19.77;;;13.83;;
18875;SDS011;9570;50.854;13.778;2023-03-01T09:37:36;21.90;;;14.87;;
18875;SDS011;9570;50.854;13.778;2023-03-01T09:40:03;19.40;;;13.83;;
18875;SDS011;9570;50.854;13.778;2023-03-01T09:42:31;21.03;;;14.53;;
18875;SDS011;9570;50.854;13.778;2023-03-01T09:45:03;21.80;;;14.83;;
18875;SDS011;9570;50.854;13.778;2023-03-01T09:47:31;20.70;;;14.93;;
18875;SDS011;9570;50.854;13.778;2023-03-01T09:50:13;25.80;;;15.27;;
18875;SDS011;9570;50.854;13.778;2023-03-01T09:52:46;21.10;;;14.70;;
18875;SDS011;9570;50.854;13.778;2023-03-01T10:01:27;21.90;;;15.00;;
18875;SDS011;9570;50.854;13.778;2023-03-01T10:06:37;23.73;;;15.10;;
18875;SDS011;9570;50.854;13.778;2023-03-01T10:09:10;20.63;;;14.57;;
18875;SDS011;9570;50.854;13.778;2023-03-01T10:11:41;20.70;;;14.77;;
18875;SDS011;9570;50.854;13.778;2023-03-01T10:14:25;22.27;;;15.30;;
18875;SDS011;9570;50.854;13.778;2023-03-01T10:17:03;20.97;;;15.03;;
18875;SDS011;9570;50.854;13.778;2023-03-01T10:19:43;22.27;;;15.83;;
18875;SDS011;9570;50.854;13.778;2023-03-01T10:24:46;26.10;;;16.43;;
18875;SDS011;9570;50.854;13.778;2023-03-01T10:27:23;21.20;;;15.73;;
18875;SDS011;9570;50.854;13.778;2023-03-01T10:29:54;23.60;;;16.40;;
18875;SDS011;9570;50.854;13.778;2023-03-01T10:32:34;25.17;;;16.20;;
18875;SDS011;9570;50.854;13.778;2023-03-01T10:34:59;25.97;;;16.47;;
18875;SDS011;9570;50.854;13.778;2023-03-01T10:37:25;22.83;;;16.33;;
18875;SDS011;9570;50.854;13.778;2023-03-01T10:42:34;22.63;;;16.57;;
18875;SDS011;9570;50.854;13.778;2023-03-01T10:48:04;22.50;;;16.40;;
18875;SDS011;9570;50.854;13.778;2023-03-01T10:53:28;22.57;;;16.87;;
18875;SDS011;9570;50.854;13.778;2023-03-01T10:56:02;26.97;;;15.73;;
18875;SDS011;9570;50.854;13.778;2023-03-01T10:58:34;23.27;;;16.40;;
18875;SDS011;9570;50.854;13.778;2023-03-01T11:01:02;24.73;;;16.07;;
18875;SDS011;9570;50.854;13.778;2023-03-01T11:03:30;22.70;;;15.40;;
18875;SDS011;9570;50.854;13.778;2023-03-01T11:06:00;28.80;;;16.73;;
18875;SDS011;9570;50.854;13.778;2023-03-01T11:08:29;23.63;;;15.80;;
18875;SDS011;9570;50.854;13.778;2023-03-01T11:11:03;24.33;;;16.07;;
18875;SDS011;9570;50.854;13.778;2023-03-01T11:13:32;22.90;;;15.97;;
18875;SDS011;9570;50.854;13.778;2023-03-01T11:15:58;23.13;;;15.03;;
18875;SDS011;9570;50.854;13.778;2023-03-01T11:18:30;22.73;;;14.30;;
18875;SDS011;9570;50.854;13.778;2023-03-01T11:20:56;20.70;;;14.53;;
18875;SDS011;9570;50.854;13.778;2023-03-01T11:23:24;21.50;;;14.40;;
18875;SDS011;9570;50.854;13.778;2023-03-01T11:25:56;19.80;;;14.30;;
18875;SDS011;9570;50.854;13.778;2023-03-01T11:28:32;21.43;;;15.43;;
18875;SDS011;9570;50.854;13.778;2023-03-01T11:33:33;21.03;;;14.40;;
18875;SDS011;9570;50.854;13.778;2023-03-01T11:38:40;21.10;;;14.20;;
18875;SDS011;9570;50.854;13.778;2023-03-01T11:41:16;20.03;;;13.73;;
18875;SDS011;9570;50.854;13.778;2023-03-01T11:44:01;18.50;;;13.97;;
18875;SDS011;9570;50.854;13.778;2023-03-01T11:49:15;21.00;;;14.63;;
18875;SDS011;9570;50.854;13.778;2023-03-01T12:00:36;21.07;;;13.83;;
18875;SDS011;9570;50.854;13.778;2023-03-01T12:09:17;20.47;;;13.43;;
18875;SDS011;9570;50.854;13.778;2023-03-01T12:17:54;20.20;;;13.40;;
18875;SDS011;9570;50.854;13.778;2023-03-01T12:20:50;19.10;;;13.40;;
18875;SDS011;9570;50.854;13.778;2023-03-01T12:23:33;25.23;;;14.67;;
18875;SDS011;9570;50.854;13.778;2023-03-01T12:28:59;23.43;;;15.60;;
18875;SDS011;9570;50.854;13.778;2023-03-01T12:31:39;20.93;;;15.30;;
18875;SDS011;9570;50.854;13.778;2023-03-01T12:34:28;22.37;;;14.70;;
18875;SDS011;9570;50.854;13.778;2023-03-01T12:37:11;24.30;;;15.63;;
18875;SDS011;9570;50.854;13.778;2023-03-01T12:42:34;21.27;;;14.43;;
18875;SDS011;9570;50.854;13.778;2023-03-01T12:50:58;19.33;;;13.03;;
18875;SDS011;9570;50.854;13.778;2023-03-01T12:53:29;19.90;;;14.47;;
18875;SDS011;9570;50.854;13.778;2023-03-01T12:56:05;19.90;;;13.33;;
18875;SDS011;9570;50.854;13.778;2023-03-01T13:04:12;19.73;;;12.77;;
18875;SDS011;9570;50.854;13.778;2023-03-01T13:07:01;19.73;;;13.63;;
18875;SDS011;9570;50.854;13.778;2023-03-01T13:09:34;17.13;;;11.70;;
18875;SDS011;9570;50.854;13.778;2023-03-01T13:12:00;19.13;;;13.43;;
18875;SDS011;9570;50.854;13.778;2023-03-01T13:16:57;20.53;;;12.67;;
18875;SDS011;9570;50.854;13.778;2023-03-01T13:21:57;17.53;;;12.30;;
18875;SDS011;9570;50.854;13.778;2023-03-01T13:24:32;19.10;;;12.23;;
18875;SDS011;9570;50.854;13.778;2023-03-01T13:29:29;17.00;;;11.93;;
18875;SDS011;9570;50.854;13.778;2023-03-01T13:32:25;16.93;;;12.10;;
18875;SDS011;9570;50.854;13.778;2023-03-01T13:34:59;17.70;;;11.63;;
18875;SDS011;9570;50.854;13.778;2023-03-01T13:37:31;15.33;;;12.10;;
18875;SDS011;9570;50.854;13.778;2023-03-01T13:39:59;16.33;;;11.50;;
18875;SDS011;9570;50.854;13.778;2023-03-01T13:42:52;16.67;;;11.27;;
18875;SDS011;9570;50.854;13.778;2023-03-01T13:45:32;15.73;;;11.27;;
18875;SDS011;9570;50.854;13.778;2023-03-01T13:48:18;19.80;;;11.87;;
18875;SDS011;9570;50.854;13.778;2023-03-01T13:50:52;17.87;;;11.63;;
18875;SDS011;9570;50.854;13.778;2023-03-01T13:53:22;17.47;;;12.17;;
18875;SDS011;9570;50.854;13.778;2023-03-01T13:55:57;18.80;;;12.60;;
18875;SDS011;9570;50.854;13.778;2023-03-01T13:58:29;17.40;;;12.23;;
18875;SDS011;9570;50.854;13.778;2023-03-01T14:00:58;20.20;;;13.27;;
18875;SDS011;9570;50.854;13.778;2023-03-01T14:03:24;20.43;;;13.37;;
18875;SDS011;9570;50.854;13.778;2023-03-01T14:06:07;19.50;;;13.43;;
18875;SDS011;9570;50.854;13.778;2023-03-01T14:09:00;20.43;;;12.63;;
18875;SDS011;9570;50.854;13.778;2023-03-01T14:11:59;19.57;;;12.93;;
18875;SDS011;9570;50.854;13.778;2023-03-01T14:14:45;18.23;;;12.63;;
18875;SDS011;9570;50.854;13.778;2023-03-01T14:17:25;17.90;;;12.63;;
18875;SDS011;9570;50.854;13.778;2023-03-01T14:20:17;18.77;;;12.77;;
18875;SDS011;9570;50.854;13.778;2023-03-01T14:22:44;21.47;;;13.07;;
18875;SDS011;9570;50.854;13.778;2023-03-01T14:28:02;22.73;;;13.70;;
18875;SDS011;9570;50.854;13.778;2023-03-01T14:30:33;19.43;;;13.57;;
18875;SDS011;9570;50.854;13.778;2023-03-01T14:33:06;19.57;;;13.13;;
18875;SDS011;9570;50.854;13.778;2023-03-01T14:35:51;20.10;;;13.70;;
18875;SDS011;9570;50.854;13.778;2023-03-01T14:38:37;21.53;;;14.40;;
18875;SDS011;9570;50.854;13.778;2023-03-01T14:41:24;19.43;;;13.33;;
18875;SDS011;9570;50.854;13.778;2023-03-01T14:44:23;21.53;;;14.27;;
18875;SDS011;9570;50.854;13.778;2023-03-01T14:46:44;21.13;;;13.73;;
18875;SDS011;9570;50.854;13.778;2023-03-01T14:49:17;23.47;;;14.50;;
18875;SDS011;9570;50.854;13.778;2023-03-01T14:51:52;24.77;;;14.30;;
18875;SDS011;9570;50.854;13.778;2023-03-01T14:54:29;23.10;;;14.70;;
18875;SDS011;9570;50.854;13.778;2023-03-01T14:57:03;25.40;;;15.07;;
18875;SDS011;9570;50.854;13.778;2023-03-01T14:59:28;22.57;;;14.27;;
18875;SDS011;9570;50.854;13.778;2023-03-01T15:01:55;20.37;;;14.17;;
18875;SDS011;9570;50.854;13.778;2023-03-01T15:04:22;22.23;;;14.17;;
18875;SDS011;9570;50.854;13.778;2023-03-01T15:06:52;21.33;;;14.63;;
18875;SDS011;9570;50.854;13.778;2023-03-01T15:09:19;21.17;;;14.50;;
18875;SDS011;9570;50.854;13.778;2023-03-01T15:11:45;20.47;;;13.97;;
18875;SDS011;9570;50.854;13.778;2023-03-01T15:17:39;20.30;;;13.67;;
18875;SDS011;9570;50.854;13.778;2023-03-01T15:20:03;21.10;;;13.50;;
18875;SDS011;9570;50.854;13.778;2023-03-01T15:22:31;22.70;;;15.03;;
18875;SDS011;9570;50.854;13.778;2023-03-01T15:24:57;27.77;;;14.27;;
18875;SDS011;9570;50.854;13.778;2023-03-01T15:27:23;24.60;;;14.63;;
18875;SDS011;9570;50.854;13.778;2023-03-01T15:29:55;22.77;;;14.73;;
18875;SDS011;9570;50.854;13.778;2023-03-01T15:34:58;20.33;;;13.10;;
18875;SDS011;9570;50.854;13.778;2023-03-01T15:37:36;20.43;;;12.93;;
18875;SDS011;9570;50.854;13.778;2023-03-01T15:43:03;20.40;;;12.47;;
18875;SDS011;9570;50.854;13.778;2023-03-01T15:45:31;20.63;;;13.10;;
18875;SDS011;9570;50.854;13.778;2023-03-01T15:48:03;19.53;;;12.90;;
18875;SDS011;9570;50.854;13.778;2023-03-01T15:50:54;19.47;;;12.63;;
18875;SDS011;9570;50.854;13.778;2023-03-01T15:53:22;21.93;;;13.37;;
18875;SDS011;9570;50.854;13.778;2023-03-01T15:55:48;21.87;;;13.77;;
18875;SDS011;9570;50.854;13.778;2023-03-01T15:58:16;21.37;;;13.93;;
18875;SDS011;9570;50.854;13.778;2023-03-01T16:00:44;21.93;;;13.10;;
18875;SDS011;9570;50.854;13.778;2023-03-01T16:03:12;20.97;;;13.23;;
18875;SDS011;9570;50.854;13.778;2023-03-01T16:05:37;23.13;;;15.27;;
18875;SDS011;9570;50.854;13.778;2023-03-01T16:08:04;20.00;;;12.73;;
18875;SDS011;9570;50.854;13.778;2023-03-01T16:10:31;22.03;;;14.50;;
18875;SDS011;9570;50.854;13.778;2023-03-01T16:12:58;21.80;;;12.70;;
18875;SDS011;9570;50.854;13.778;2023-03-01T16:15:26;22.33;;;14.53;;
18875;SDS011;9570;50.854;13.778;2023-03-01T16:17:54;19.10;;;12.47;;
18875;SDS011;9570;50.854;13.778;2023-03-01T16:20:20;19.70;;;13.23;;